sensor_id;sensor_type;location;lat;lon;timestamp;pressure;altitude;pressure_sealevel;temperature;humidity
74552;BME280;63025;55.472;38.432;2023-05-14T00:02:25;100712.34;;;11.49;57.02
74552;BME280;63025;55.472;38.432;2023-05-14T00:04:52;100714.78;;;11.44;57.49
74552;BME280;63025;55.472;38.432;2023-05-14T00:07:18;100719.13;;;11.38;57.58
74552;BME280;63025;55.472;38.432;2023-05-14T00:09:44;100719.06;;;11.32;57.67
74552;BME280;63025;55.472;38.432;2023-05-14T00:12:10;100714.47;;;11.26;58.00
74552;BME280;63025;55.472;38.432;2023-05-14T00:14:36;100714.88;;;11.23;58.06
74552;BME280;63025;55.472;38.432;2023-05-14T00:17:02;100714.66;;;11.18;58.15
74552;BME280;63025;55.472;38.432;2023-05-14T00:19:28;100717.53;;;11.16;58.34
74552;BME280;63025;55.472;38.432;2023-05-14T00:21:53;100707.34;;;11.12;58.30
74552;BME280;63025;55.472;38.432;2023-05-14T00:24:19;100706.47;;;11.04;58.57
74552;BME280;63025;55.472;38.432;2023-05-14T00:26:45;100718.91;;;11.06;58.78
74552;BME280;63025;55.472;38.432;2023-05-14T00:29:11;100713.53;;;11.06;58.65
74552;BME280;63025;55.472;38.432;2023-05-14T00:31:36;100717.84;;;11.00;58.70
74552;BME280;63025;55.472;38.432;2023-05-14T00:34:02;100730.66;;;10.98;59.23
74552;BME280;63025;55.472;38.432;2023-05-14T00:36:29;100727.50;;;10.94;59.08
74552;BME280;63025;55.472;38.432;2023-05-14T00:38:56;100730.38;;;10.93;59.30
74552;BME280;63025;55.472;38.432;2023-05-14T00:41:22;100732.00;;;10.87;59.41
74552;BME280;63025;55.472;38.432;2023-05-14T00:43:47;100733.69;;;10.88;59.53
74552;BME280;63025;55.472;38.432;2023-05-14T00:46:14;100738.59;;;10.85;59.27
74552;BME280;63025;55.472;38.432;2023-05-14T00:48:40;100726.38;;;10.82;59.45
74552;BME280;63025;55.472;38.432;2023-05-14T00:51:07;100728.63;;;10.79;59.95
74552;BME280;63025;55.472;38.432;2023-05-14T00:53:34;100736.25;;;10.75;59.80
74552;BME280;63025;55.472;38.432;2023-05-14T00:56:01;100733.75;;;10.74;59.95
74552;BME280;63025;55.472;38.432;2023-05-14T00:58:28;100726.28;;;10.69;59.94
74552;BME280;63025;55.472;38.432;2023-05-14T01:00:54;100726.84;;;10.64;60.38
74552;BME280;63025;55.472;38.432;2023-05-14T01:03:20;100735.47;;;10.60;60.38
74552;BME280;63025;55.472;38.432;2023-05-14T01:06:07;100746.63;;;10.57;60.58
74552;BME280;63025;55.472;38.432;2023-05-14T01:11:11;100734.34;;;10.48;60.66
74552;BME280;63025;55.472;38.432;2023-05-14T01:16:17;100744.63;;;10.44;61.11
74552;BME280;63025;55.472;38.432;2023-05-14T01:18:44;100740.03;;;10.38;61.17
74552;BME280;63025;55.472;38.432;2023-05-14T01:21:36;100750.78;;;10.38;61.73
74552;BME280;63025;55.472;38.432;2023-05-14T01:24:03;100742.06;;;10.36;61.50
74552;BME280;63025;55.472;38.432;2023-05-14T01:26:29;100747.63;;;10.35;61.46
74552;BME280;63025;55.472;38.432;2023-05-14T01:29:09;100752.00;;;10.36;62.07
74552;BME280;63025;55.472;38.432;2023-05-14T01:31:38;100753.56;;;10.30;62.11
74552;BME280;63025;55.472;38.432;2023-05-14T01:34:05;100749.22;;;10.29;61.87
74552;BME280;63025;55.472;38.432;2023-05-14T01:36:32;100753.75;;;10.28;61.94
74552;BME280;63025;55.472;38.432;2023-05-14T01:39:00;100760.78;;;10.29;61.78
74552;BME280;63025;55.472;38.432;2023-05-14T01:41:31;100763.28;;;10.31;61.82
74552;BME280;63025;55.472;38.432;2023-05-14T01:43:57;100759.13;;;10.28;62.50
74552;BME280;63025;55.472;38.432;2023-05-14T01:46:23;100761.81;;;10.28;62.15
74552;BME280;63025;55.472;38.432;2023-05-14T01:48:49;100766.56;;;10.26;62.39
74552;BME280;63025;55.472;38.432;2023-05-14T01:51:15;100759.34;;;10.27;62.69
74552;BME280;63025;55.472;38.432;2023-05-14T01:53:41;100768.41;;;10.26;62.75
74552;BME280;63025;55.472;38.432;2023-05-14T01:56:07;100760.19;;;10.27;62.54
74552;BME280;63025;55.472;38.432;2023-05-14T01:58:33;100763.47;;;10.29;62.84
74552;BME280;63025;55.472;38.432;2023-05-14T02:00:58;100771.53;;;10.29;62.76
74552;BME280;63025;55.472;38.432;2023-05-14T02:03:24;100771.34;;;10.31;62.43
74552;BME280;63025;55.472;38.432;2023-05-14T02:05:50;100768.47;;;10.33;62.36
74552;BME280;63025;55.472;38.432;2023-05-14T02:08:16;100772.47;;;10.37;62.68
74552;BME280;63025;55.472;38.432;2023-05-14T02:10:42;100779.50;;;10.38;62.59
74552;BME280;63025;55.472;38.432;2023-05-14T02:13:07;100780.59;;;10.43;62.64
74552;BME280;63025;55.472;38.432;2023-05-14T02:15:34;100781.25;;;10.45;62.71
74552;BME280;63025;55.472;38.432;2023-05-14T02:18:00;100779.81;;;10.49;62.42
74552;BME280;63025;55.472;38.432;2023-05-14T02:20:27;100786.31;;;10.55;62.58
74552;BME280;63025;55.472;38.432;2023-05-14T02:22:53;100786.75;;;10.58;62.31
74552;BME280;63025;55.472;38.432;2023-05-14T02:25:20;100784.06;;;10.58;62.43
74552;BME280;63025;55.472;38.432;2023-05-14T02:27:47;100782.00;;;10.60;62.61
74552;BME280;63025;55.472;38.432;2023-05-14T02:30:14;100785.78;;;10.66;62.27
74552;BME280;63025;55.472;38.432;2023-05-14T02:32:39;100777.53;;;10.68;62.36
74552;BME280;63025;55.472;38.432;2023-05-14T02:35:06;100795.59;;;10.74;62.20
74552;BME280;63025;55.472;38.432;2023-05-14T02:37:31;100804.28;;;10.76;62.10
74552;BME280;63025;55.472;38.432;2023-05-14T02:39:59;100804.75;;;10.79;62.14
74552;BME280;63025;55.472;38.432;2023-05-14T02:42:25;100813.53;;;10.88;62.04
74552;BME280;63025;55.472;38.432;2023-05-14T02:44:51;100804.47;;;10.95;61.97
74552;BME280;63025;55.472;38.432;2023-05-14T02:47:17;100807.41;;;11.00;61.70
74552;BME280;63025;55.472;38.432;2023-05-14T02:49:43;100807.66;;;11.06;61.54
74552;BME280;63025;55.472;38.432;2023-05-14T02:52:09;100801.13;;;11.15;61.51
74552;BME280;63025;55.472;38.432;2023-05-14T02:54:35;100810.72;;;11.24;61.40
74552;BME280;63025;55.472;38.432;2023-05-14T02:57:01;100806.84;;;11.33;60.89
74552;BME280;63025;55.472;38.432;2023-05-14T02:59:26;100809.81;;;11.38;61.01
74552;BME280;63025;55.472;38.432;2023-05-14T03:01:52;100810.63;;;11.38;61.04
74552;BME280;63025;55.472;38.432;2023-05-14T03:04:18;100813.97;;;11.40;60.98
74552;BME280;63025;55.472;38.432;2023-05-14T03:06:44;100819.19;;;11.49;60.77
74552;BME280;63025;55.472;38.432;2023-05-14T03:09:10;100812.44;;;11.59;60.59
74552;BME280;63025;55.472;38.432;2023-05-14T03:11:36;100816.44;;;11.70;60.44
74552;BME280;63025;55.472;38.432;2023-05-14T03:14:02;100817.78;;;11.81;60.34
74552;BME280;63025;55.472;38.432;2023-05-14T03:16:27;100827.56;;;11.88;60.13
74552;BME280;63025;55.472;38.432;2023-05-14T03:18:53;100819.72;;;11.93;59.92
74552;BME280;63025;55.472;38.432;2023-05-14T03:21:19;100824.53;;;12.04;59.67
74552;BME280;63025;55.472;38.432;2023-05-14T03:23:45;100829.97;;;12.11;59.40
74552;BME280;63025;55.472;38.432;2023-05-14T03:26:11;100834.31;;;12.12;59.22
74552;BME280;63025;55.472;38.432;2023-05-14T03:28:36;100832.88;;;12.16;59.31
74552;BME280;63025;55.472;38.432;2023-05-14T03:31:02;100837.47;;;12.22;59.10
74552;BME280;63025;55.472;38.432;2023-05-14T03:33:29;100841.63;;;12.25;59.15
74552;BME280;63025;55.472;38.432;2023-05-14T03:35:55;100844.16;;;12.39;59.04
74552;BME280;63025;55.472;38.432;2023-05-14T03:38:21;100840.50;;;12.54;58.67
74552;BME280;63025;55.472;38.432;2023-05-14T03:40:47;100840.69;;;12.45;58.63
74552;BME280;63025;55.472;38.432;2023-05-14T03:43:13;100835.88;;;12.34;58.75
74552;BME280;63025;55.472;38.432;2023-05-14T03:45:38;100830.63;;;12.26;58.89
74552;BME280;63025;55.472;38.432;2023-05-14T03:48:05;100837.88;;;12.19;58.51
74552;BME280;63025;55.472;38.432;2023-05-14T03:50:32;100841.97;;;12.15;58.97
74552;BME280;63025;55.472;38.432;2023-05-14T03:52:57;100842.41;;;12.12;58.87
74552;BME280;63025;55.472;38.432;2023-05-14T03:55:23;100842.78;;;12.09;59.30
74552;BME280;63025;55.472;38.432;2023-05-14T03:57:49;100854.22;;;12.11;59.45
74552;BME280;63025;55.472;38.432;2023-05-14T04:00:15;100845.31;;;12.17;59.56
74552;BME280;63025;55.472;38.432;2023-05-14T04:02:44;100853.22;;;12.25;59.39
74552;BME280;63025;55.472;38.432;2023-05-14T04:05:10;100849.09;;;12.29;59.25
74552;BME280;63025;55.472;38.432;2023-05-14T04:07:36;100854.56;;;12.42;59.08
74552;BME280;63025;55.472;38.432;2023-05-14T04:10:02;100849.03;;;12.64;58.44
74552;BME280;63025;55.472;38.432;2023-05-14T04:12:31;100843.47;;;12.85;57.89
74552;BME280;63025;55.472;38.432;2023-05-14T04:14:57;100854.28;;;12.98;57.62
74552;BME280;63025;55.472;38.432;2023-05-14T04:17:23;100854.75;;;13.21;57.15
74552;BME280;63025;55.472;38.432;2023-05-14T04:19:49;100855.19;;;13.45;56.94
74552;BME280;63025;55.472;38.432;2023-05-14T04:22:14;100846.44;;;13.69;56.24
74552;BME280;63025;55.472;38.432;2023-05-14T04:24:40;100856.38;;;13.88;55.81
74552;BME280;63025;55.472;38.432;2023-05-14T04:27:06;100852.84;;;13.88;55.16
74552;BME280;63025;55.472;38.432;2023-05-14T04:29:32;100856.78;;;13.99;54.95
74552;BME280;63025;55.472;38.432;2023-05-14T04:31:58;100858.81;;;14.16;55.09
74552;BME280;63025;55.472;38.432;2023-05-14T04:34:24;100851.91;;;14.27;54.48
74552;BME280;63025;55.472;38.432;2023-05-14T04:36:50;100851.88;;;14.40;54.60
74552;BME280;63025;55.472;38.432;2023-05-14T04:39:16;100860.38;;;14.50;53.89
74552;BME280;63025;55.472;38.432;2023-05-14T04:41:43;100861.00;;;14.52;53.87
74552;BME280;63025;55.472;38.432;2023-05-14T04:44:11;100864.22;;;14.67;53.90
74552;BME280;63025;55.472;38.432;2023-05-14T04:46:37;100863.81;;;14.71;53.48
74552;BME280;63025;55.472;38.432;2023-05-14T04:49:03;100863.56;;;14.79;53.12
74552;BME280;63025;55.472;38.432;2023-05-14T04:51:28;100864.22;;;14.74;52.56
74552;BME280;63025;55.472;38.432;2023-05-14T04:53:54;100857.25;;;14.85;53.05
74552;BME280;63025;55.472;38.432;2023-05-14T04:56:20;100855.97;;;14.94;52.58
74552;BME280;63025;55.472;38.432;2023-05-14T04:58:46;100857.41;;;14.96;52.48
74552;BME280;63025;55.472;38.432;2023-05-14T05:01:12;100864.44;;;15.04;52.41
74552;BME280;63025;55.472;38.432;2023-05-14T05:03:38;100871.63;;;15.17;52.36
74552;BME280;63025;55.472;38.432;2023-05-14T05:06:03;100868.22;;;15.28;51.96
74552;BME280;63025;55.472;38.432;2023-05-14T05:08:29;100869.44;;;15.32;51.68
74552;BME280;63025;55.472;38.432;2023-05-14T05:10:55;100872.97;;;15.32;51.82
74552;BME280;63025;55.472;38.432;2023-05-14T05:13:21;100867.47;;;15.46;51.31
74552;BME280;63025;55.472;38.432;2023-05-14T05:15:47;100869.25;;;15.58;50.73
74552;BME280;63025;55.472;38.432;2023-05-14T05:18:13;100861.41;;;15.75;50.80
74552;BME280;63025;55.472;38.432;2023-05-14T05:20:38;100856.06;;;15.87;50.60
74552;BME280;63025;55.472;38.432;2023-05-14T05:23:04;100860.06;;;16.02;50.66
74552;BME280;63025;55.472;38.432;2023-05-14T05:25:30;100853.28;;;16.11;50.00
74552;BME280;63025;55.472;38.432;2023-05-14T05:27:56;100862.78;;;16.21;49.77
74552;BME280;63025;55.472;38.432;2023-05-14T05:30:21;100863.81;;;16.20;48.71
74552;BME280;63025;55.472;38.432;2023-05-14T05:32:47;100854.78;;;16.26;48.49
74552;BME280;63025;55.472;38.432;2023-05-14T05:35:13;100862.00;;;16.32;48.67
74552;BME280;63025;55.472;38.432;2023-05-14T05:37:40;100855.00;;;16.42;48.62
74552;BME280;63025;55.472;38.432;2023-05-14T05:40:06;100859.91;;;16.34;47.59
74552;BME280;63025;55.472;38.432;2023-05-14T05:42:32;100853.66;;;16.33;46.46
74552;BME280;63025;55.472;38.432;2023-05-14T05:44:58;100862.09;;;16.43;45.94
74552;BME280;63025;55.472;38.432;2023-05-14T05:47:24;100860.28;;;16.56;45.43
74552;BME280;63025;55.472;38.432;2023-05-14T05:49:49;100852.72;;;16.58;45.55
74552;BME280;63025;55.472;38.432;2023-05-14T05:52:15;100856.13;;;16.71;44.92
74552;BME280;63025;55.472;38.432;2023-05-14T05:54:41;100853.38;;;16.90;44.71
74552;BME280;63025;55.472;38.432;2023-05-14T05:57:07;100848.13;;;16.76;43.95
74552;BME280;63025;55.472;38.432;2023-05-14T05:59:32;100864.22;;;16.90;44.36
74552;BME280;63025;55.472;38.432;2023-05-14T06:01:58;100849.59;;;16.91;43.71
74552;BME280;63025;55.472;38.432;2023-05-14T06:04:24;100866.47;;;16.93;43.32
74552;BME280;63025;55.472;38.432;2023-05-14T06:06:50;100861.28;;;17.03;43.56
74552;BME280;63025;55.472;38.432;2023-05-14T06:09:15;100861.72;;;17.18;43.21
74552;BME280;63025;55.472;38.432;2023-05-14T06:11:41;100859.47;;;17.27;42.89
74552;BME280;63025;55.472;38.432;2023-05-14T06:14:07;100859.44;;;17.15;42.07
74552;BME280;63025;55.472;38.432;2023-05-14T06:16:33;100858.16;;;17.17;42.51
74552;BME280;63025;55.472;38.432;2023-05-14T06:18:59;100862.56;;;17.30;42.07
74552;BME280;63025;55.472;38.432;2023-05-14T06:21:25;100857.50;;;17.34;42.18
74552;BME280;63025;55.472;38.432;2023-05-14T06:23:51;100869.56;;;17.49;42.60
74552;BME280;63025;55.472;38.432;2023-05-14T06:26:16;100863.94;;;17.63;42.72
74552;BME280;63025;55.472;38.432;2023-05-14T06:28:42;100849.97;;;17.71;42.55
74552;BME280;63025;55.472;38.432;2023-05-14T06:31:08;100859.56;;;17.85;42.68
74552;BME280;63025;55.472;38.432;2023-05-14T06:33:34;100852.56;;;17.89;42.73
74552;BME280;63025;55.472;38.432;2023-05-14T06:36:03;100866.75;;;18.03;42.84
74552;BME280;63025;55.472;38.432;2023-05-14T06:38:29;100861.19;;;17.86;42.14
74552;BME280;63025;55.472;38.432;2023-05-14T06:40:55;100862.28;;;17.73;42.09
74552;BME280;63025;55.472;38.432;2023-05-14T06:43:21;100863.44;;;17.66;42.29
74552;BME280;63025;55.472;38.432;2023-05-14T06:45:48;100856.63;;;17.75;41.02
74552;BME280;63025;55.472;38.432;2023-05-14T06:48:14;100857.78;;;18.02;40.99
74552;BME280;63025;55.472;38.432;2023-05-14T06:50:40;100862.13;;;18.15;40.80
74552;BME280;63025;55.472;38.432;2023-05-14T06:53:05;100864.56;;;18.40;40.83
74552;BME280;63025;55.472;38.432;2023-05-14T06:55:31;100860.88;;;18.57;40.07
74552;BME280;63025;55.472;38.432;2023-05-14T06:57:59;100855.06;;;18.54;38.67
74552;BME280;63025;55.472;38.432;2023-05-14T07:00:24;100863.63;;;18.34;38.54
74552;BME280;63025;55.472;38.432;2023-05-14T07:02:50;100856.09;;;18.24;38.25
74552;BME280;63025;55.472;38.432;2023-05-14T07:05:16;100853.97;;;18.26;38.40
74552;BME280;63025;55.472;38.432;2023-05-14T07:07:42;100869.91;;;18.34;38.48
74552;BME280;63025;55.472;38.432;2023-05-14T07:10:08;100853.69;;;18.28;38.19
74552;BME280;63025;55.472;38.432;2023-05-14T07:12:34;100863.06;;;18.20;37.78
74552;BME280;63025;55.472;38.432;2023-05-14T07:15:00;100867.28;;;18.28;38.16
74552;BME280;63025;55.472;38.432;2023-05-14T07:17:26;100868.00;;;18.35;38.62
74552;BME280;63025;55.472;38.432;2023-05-14T07:19:52;100873.22;;;18.37;38.58
74552;BME280;63025;55.472;38.432;2023-05-14T07:22:20;100886.78;;;18.48;38.23
74552;BME280;63025;55.472;38.432;2023-05-14T07:24:46;100878.59;;;18.48;37.84
74552;BME280;63025;55.472;38.432;2023-05-14T07:27:12;100879.63;;;18.70;38.45
74552;BME280;63025;55.472;38.432;2023-05-14T07:29:37;100884.88;;;18.60;38.07
74552;BME280;63025;55.472;38.432;2023-05-14T07:32:04;100880.53;;;18.48;37.72
74552;BME280;63025;55.472;38.432;2023-05-14T07:34:29;100889.06;;;18.40;37.77
74552;BME280;63025;55.472;38.432;2023-05-14T07:36:55;100878.03;;;18.58;37.93
74552;BME280;63025;55.472;38.432;2023-05-14T07:39:21;100890.78;;;18.69;37.70
74552;BME280;63025;55.472;38.432;2023-05-14T07:41:47;100891.50;;;18.64;37.72
74552;BME280;63025;55.472;38.432;2023-05-14T07:44:14;100895.72;;;19.00;37.56
74552;BME280;63025;55.472;38.432;2023-05-14T07:46:40;100892.66;;;19.42;37.01
74552;BME280;63025;55.472;38.432;2023-05-14T07:49:06;100886.56;;;19.85;36.96
74552;BME280;63025;55.472;38.432;2023-05-14T07:51:32;100887.56;;;19.96;35.51
74552;BME280;63025;55.472;38.432;2023-05-14T07:53:58;100894.44;;;19.65;35.70
74552;BME280;63025;55.472;38.432;2023-05-14T07:56:24;100904.63;;;19.69;35.33
74552;BME280;63025;55.472;38.432;2023-05-14T07:58:50;100897.50;;;19.68;35.46
74552;BME280;63025;55.472;38.432;2023-05-14T08:01:16;100902.00;;;19.46;35.61
74552;BME280;63025;55.472;38.432;2023-05-14T08:03:42;100905.56;;;19.30;35.54
74552;BME280;63025;55.472;38.432;2023-05-14T08:06:08;100904.03;;;19.05;35.63
74552;BME280;63025;55.472;38.432;2023-05-14T08:08:34;100898.72;;;18.99;35.87
74552;BME280;63025;55.472;38.432;2023-05-14T08:11:01;100893.66;;;19.36;36.27
74552;BME280;63025;55.472;38.432;2023-05-14T08:13:28;100895.59;;;19.69;35.78
74552;BME280;63025;55.472;38.432;2023-05-14T08:15:54;100891.84;;;20.08;35.36
74552;BME280;63025;55.472;38.432;2023-05-14T08:18:20;100876.63;;;20.34;34.01
74552;BME280;63025;55.472;38.432;2023-05-14T08:20:46;100879.91;;;20.53;34.02
74552;BME280;63025;55.472;38.432;2023-05-14T08:23:13;100882.75;;;20.85;33.32
74552;BME280;63025;55.472;38.432;2023-05-14T08:25:38;100884.53;;;21.01;32.72
74552;BME280;63025;55.472;38.432;2023-05-14T08:28:04;100883.53;;;21.07;33.19
74552;BME280;63025;55.472;38.432;2023-05-14T08:30:30;100881.09;;;21.70;32.78
74552;BME280;63025;55.472;38.432;2023-05-14T08:32:57;100887.97;;;21.77;32.32
74552;BME280;63025;55.472;38.432;2023-05-14T08:35:23;100876.13;;;22.04;31.68
74552;BME280;63025;55.472;38.432;2023-05-14T08:37:49;100885.22;;;22.14;32.04
74552;BME280;63025;55.472;38.432;2023-05-14T08:40:14;100893.88;;;21.05;31.87
74552;BME280;63025;55.472;38.432;2023-05-14T08:42:40;100889.09;;;21.17;32.59
74552;BME280;63025;55.472;38.432;2023-05-14T08:45:17;100893.09;;;20.83;33.07
74552;BME280;63025;55.472;38.432;2023-05-14T08:47:48;100888.44;;;20.83;31.98
74552;BME280;63025;55.472;38.432;2023-05-14T08:50:17;100889.09;;;20.69;32.15
74552;BME280;63025;55.472;38.432;2023-05-14T08:52:44;100894.63;;;21.54;31.68
74552;BME280;63025;55.472;38.432;2023-05-14T08:55:11;100890.34;;;23.66;29.34
74552;BME280;63025;55.472;38.432;2023-05-14T08:57:37;100882.34;;;24.74;27.40
74552;BME280;63025;55.472;38.432;2023-05-14T09:00:05;100878.34;;;25.79;27.56
74552;BME280;63025;55.472;38.432;2023-05-14T09:02:39;100876.91;;;27.00;25.43
74552;BME280;63025;55.472;38.432;2023-05-14T09:05:05;100889.16;;;25.99;25.86
74552;BME280;63025;55.472;38.432;2023-05-14T09:07:34;100888.53;;;24.46;26.46
74552;BME280;63025;55.472;38.432;2023-05-14T09:10:01;100885.34;;;23.27;28.31
74552;BME280;63025;55.472;38.432;2023-05-14T09:12:27;100880.06;;;22.80;29.28
74552;BME280;63025;55.472;38.432;2023-05-14T09:14:53;100885.53;;;22.23;29.71
74552;BME280;63025;55.472;38.432;2023-05-14T09:17:19;100880.75;;;21.98;30.96
74552;BME280;63025;55.472;38.432;2023-05-14T09:19:46;100889.03;;;24.58;29.20
74552;BME280;63025;55.472;38.432;2023-05-14T09:22:15;100880.81;;;26.33;27.13
74552;BME280;63025;55.472;38.432;2023-05-14T09:24:41;100886.66;;;25.35;26.34
74552;BME280;63025;55.472;38.432;2023-05-14T09:27:08;100889.97;;;24.18;26.82
74552;BME280;63025;55.472;38.432;2023-05-14T09:29:39;100880.91;;;22.96;27.68
74552;BME280;63025;55.472;38.432;2023-05-14T09:32:05;100882.78;;;22.23;29.26
74552;BME280;63025;55.472;38.432;2023-05-14T09:34:33;100877.59;;;24.21;27.91
74552;BME280;63025;55.472;38.432;2023-05-14T09:37:03;100884.63;;;25.50;26.56
74552;BME280;63025;55.472;38.432;2023-05-14T09:39:31;100890.25;;;25.98;25.85
74552;BME280;63025;55.472;38.432;2023-05-14T09:41:57;100885.28;;;25.37;25.49
74552;BME280;63025;55.472;38.432;2023-05-14T09:44:23;100876.41;;;26.56;25.71
74552;BME280;63025;55.472;38.432;2023-05-14T09:46:49;100874.66;;;28.32;24.27
74552;BME280;63025;55.472;38.432;2023-05-14T09:49:15;100876.16;;;28.79;23.42
74552;BME280;63025;55.472;38.432;2023-05-14T09:51:41;100888.09;;;27.28;23.99
74552;BME280;63025;55.472;38.432;2023-05-14T09:54:08;100883.41;;;25.67;24.62
74552;BME280;63025;55.472;38.432;2023-05-14T09:56:35;100880.47;;;24.70;25.59
74552;BME280;63025;55.472;38.432;2023-05-14T09:59:02;100871.56;;;24.24;26.39
74552;BME280;63025;55.472;38.432;2023-05-14T10:01:29;100877.00;;;24.44;26.42
74552;BME280;63025;55.472;38.432;2023-05-14T10:03:55;100877.38;;;26.17;25.33
74552;BME280;63025;55.472;38.432;2023-05-14T10:06:27;100870.19;;;27.90;23.75
74552;BME280;63025;55.472;38.432;2023-05-14T10:08:55;100875.25;;;27.37;24.02
74552;BME280;63025;55.472;38.432;2023-05-14T10:11:24;100882.53;;;26.72;24.62
74552;BME280;63025;55.472;38.432;2023-05-14T10:14:23;100876.22;;;25.71;25.44
74552;BME280;63025;55.472;38.432;2023-05-14T10:16:50;100877.34;;;24.81;26.10
74552;BME280;63025;55.472;38.432;2023-05-14T10:19:18;100880.63;;;24.29;26.56
74552;BME280;63025;55.472;38.432;2023-05-14T10:21:47;100879.91;;;23.63;27.59
74552;BME280;63025;55.472;38.432;2023-05-14T10:24:15;100871.63;;;23.17;27.74
74552;BME280;63025;55.472;38.432;2023-05-14T10:26:43;100876.84;;;23.19;28.41
74552;BME280;63025;55.472;38.432;2023-05-14T10:29:10;100860.81;;;24.37;27.73
74552;BME280;63025;55.472;38.432;2023-05-14T10:37:06;100875.72;;;25.24;25.97
74552;BME280;63025;55.472;38.432;2023-05-14T10:39:44;100863.53;;;24.42;25.81
74552;BME280;63025;55.472;38.432;2023-05-14T10:42:15;100867.56;;;23.65;26.73
74552;BME280;63025;55.472;38.432;2023-05-14T10:47:16;100867.50;;;22.94;27.79
74552;BME280;63025;55.472;38.432;2023-05-14T10:49:44;100867.75;;;22.93;27.98
74552;BME280;63025;55.472;38.432;2023-05-14T10:52:16;100867.75;;;22.93;28.37
74552;BME280;63025;55.472;38.432;2023-05-14T10:54:57;100863.34;;;24.19;27.56
74552;BME280;63025;55.472;38.432;2023-05-14T10:57:25;100859.38;;;25.04;26.13
74552;BME280;63025;55.472;38.432;2023-05-14T10:59:56;100865.84;;;24.74;26.88
74552;BME280;63025;55.472;38.432;2023-05-14T11:05:11;100865.72;;;24.40;26.81
74552;BME280;63025;55.472;38.432;2023-05-14T11:07:40;100877.66;;;24.00;27.88
74552;BME280;63025;55.472;38.432;2023-05-14T11:10:13;100874.63;;;23.16;28.65
74552;BME280;63025;55.472;38.432;2023-05-14T11:12:41;100867.78;;;23.03;28.25
74552;BME280;63025;55.472;38.432;2023-05-14T11:15:12;100868.59;;;23.09;28.83
74552;BME280;63025;55.472;38.432;2023-05-14T11:17:40;100868.28;;;22.90;28.75
74552;BME280;63025;55.472;38.432;2023-05-14T11:20:06;100866.28;;;22.70;29.18
74552;BME280;63025;55.472;38.432;2023-05-14T11:22:35;100868.56;;;22.83;29.55
74552;BME280;63025;55.472;38.432;2023-05-14T11:25:01;100865.84;;;23.09;29.82
74552;BME280;63025;55.472;38.432;2023-05-14T11:27:32;100860.13;;;23.25;29.86
74552;BME280;63025;55.472;38.432;2023-05-14T11:29:58;100869.19;;;23.41;29.39
74552;BME280;63025;55.472;38.432;2023-05-14T11:32:25;100865.03;;;23.89;28.66
74552;BME280;63025;55.472;38.432;2023-05-14T11:34:52;100859.28;;;23.96;28.73
74552;BME280;63025;55.472;38.432;2023-05-14T11:37:18;100862.31;;;23.79;28.88
74552;BME280;63025;55.472;38.432;2023-05-14T11:39:47;100859.75;;;24.13;28.77
74552;BME280;63025;55.472;38.432;2023-05-14T11:42:13;100865.91;;;24.64;27.92
74552;BME280;63025;55.472;38.432;2023-05-14T11:44:41;100855.31;;;24.37;28.05
74552;BME280;63025;55.472;38.432;2023-05-14T11:47:09;100864.41;;;24.87;28.40
74552;BME280;63025;55.472;38.432;2023-05-14T11:49:36;100866.78;;;25.09;28.05
74552;BME280;63025;55.472;38.432;2023-05-14T11:52:04;100862.03;;;25.14;28.23
74552;BME280;63025;55.472;38.432;2023-05-14T11:54:31;100859.78;;;26.37;26.73
74552;BME280;63025;55.472;38.432;2023-05-14T11:56:59;100867.63;;;27.80;24.96
74552;BME280;63025;55.472;38.432;2023-05-14T11:59:27;100856.09;;;28.60;23.56
74552;BME280;63025;55.472;38.432;2023-05-14T12:01:53;100856.88;;;27.79;23.74
74552;BME280;63025;55.472;38.432;2023-05-14T12:04:19;100862.97;;;26.25;24.68
74552;BME280;63025;55.472;38.432;2023-05-14T12:06:48;100860.03;;;25.25;25.36
74552;BME280;63025;55.472;38.432;2023-05-14T12:09:21;100865.72;;;24.40;26.45
74552;BME280;63025;55.472;38.432;2023-05-14T12:11:48;100859.06;;;23.52;27.24
74552;BME280;63025;55.472;38.432;2023-05-14T12:14:17;100856.00;;;23.02;28.05
74552;BME280;63025;55.472;38.432;2023-05-14T12:16:44;100860.06;;;22.95;28.54
74552;BME280;63025;55.472;38.432;2023-05-14T12:19:13;100862.25;;;22.83;28.96
74552;BME280;63025;55.472;38.432;2023-05-14T12:21:41;100863.19;;;22.46;29.22
74552;BME280;63025;55.472;38.432;2023-05-14T12:24:15;100858.66;;;22.10;29.30
74552;BME280;63025;55.472;38.432;2023-05-14T12:26:46;100856.34;;;21.96;30.00
74552;BME280;63025;55.472;38.432;2023-05-14T12:29:13;100868.19;;;21.65;30.36
74552;BME280;63025;55.472;38.432;2023-05-14T12:31:47;100859.53;;;21.83;30.92
74552;BME280;63025;55.472;38.432;2023-05-14T12:34:13;100853.03;;;21.89;30.94
74552;BME280;63025;55.472;38.432;2023-05-14T12:36:39;100856.31;;;21.91;31.04
74552;BME280;63025;55.472;38.432;2023-05-14T12:39:05;100860.16;;;21.95;30.87
74552;BME280;63025;55.472;38.432;2023-05-14T12:41:32;100859.09;;;22.49;30.13
74552;BME280;63025;55.472;38.432;2023-05-14T12:43:58;100857.88;;;24.08;28.24
74552;BME280;63025;55.472;38.432;2023-05-14T12:46:26;100852.88;;;25.58;25.27
74552;BME280;63025;55.472;38.432;2023-05-14T12:48:55;100851.25;;;27.19;23.75
74552;BME280;63025;55.472;38.432;2023-05-14T12:51:22;100855.81;;;27.74;23.17
74552;BME280;63025;55.472;38.432;2023-05-14T12:53:48;100854.66;;;27.11;23.50
74552;BME280;63025;55.472;38.432;2023-05-14T12:56:14;100856.25;;;25.84;24.26